createdAt,value
2023-04-12T00:00:50.964Z,1.88
2023-04-12T00:05:56.773Z,1.70
2023-04-12T00:11:02.992Z,1.20
2023-04-12T00:16:15.493Z,1.40
2023-04-12T00:21:24.129Z,1.10
2023-04-12T00:26:29.532Z,1.27
2023-04-12T00:31:37.770Z,1.13
2023-04-12T00:36:43.470Z,1.35
2023-04-12T00:41:49.508Z,1.20
2023-04-12T00:46:58.675Z,1.10
2023-04-12T00:52:06.846Z,1.20
2023-04-12T00:57:12.584Z,1.03
2023-04-12T01:02:20.888Z,1.23
2023-04-12T01:07:45.324Z,1.58
2023-04-12T01:12:58.009Z,1.50
2023-04-12T01:18:11.658Z,1.05
2023-04-12T01:23:28.592Z,1.50
2023-04-12T01:28:41.035Z,1.42
2023-04-12T01:33:48.219Z,1.08
2023-04-12T01:39:01.038Z,1.63
2023-04-12T01:44:09.213Z,1.27
2023-04-12T01:49:15.739Z,1.60
2023-04-12T01:54:25.408Z,1.63
2023-04-12T01:59:39.339Z,1.20
2023-04-12T02:04:46.048Z,1.20
2023-04-12T02:09:51.374Z,1.25
2023-04-12T02:15:01.828Z,1.50
2023-04-12T02:20:10.938Z,1.50
2023-04-12T02:25:18.254Z,1.35
2023-04-12T02:30:26.954Z,1.77
2023-04-12T02:35:34.588Z,1.75
2023-04-12T02:40:46.361Z,1.43
2023-04-12T02:45:57.419Z,1.55
2023-04-12T02:51:03.032Z,1.13
2023-04-12T02:56:13.178Z,1.23
2023-04-12T03:01:21.562Z,1.02
2023-04-12T03:06:53.935Z,1.23
2023-04-12T03:12:12.346Z,1.00
2023-04-12T03:17:29.572Z,1.30
2023-04-12T03:22:36.668Z,1.00
2023-04-12T03:27:46.702Z,1.30
2023-04-12T03:32:58.230Z,1.20
2023-04-12T03:38:05.346Z,1.20
2023-04-12T03:43:11.179Z,1.20
2023-04-12T03:48:19.307Z,1.30
2023-04-12T03:53:25.069Z,0.82
2023-04-12T03:58:31.252Z,1.10
2023-04-12T04:03:41.340Z,1.20
2023-04-12T04:08:57.735Z,1.00
2023-04-12T04:14:04.633Z,1.00
2023-04-12T04:19:13.134Z,0.88
2023-04-12T04:24:22.526Z,1.63
2023-04-12T04:29:31.928Z,1.38
2023-04-12T04:34:43.688Z,1.10
2023-04-12T04:39:53.035Z,1.03
2023-04-12T04:45:03.767Z,1.20
2023-04-12T04:50:18.030Z,1.40
2023-04-12T04:55:24.943Z,1.33
2023-04-12T05:00:30.591Z,1.50
2023-04-12T05:05:41.251Z,1.60
2023-04-12T05:10:54.035Z,1.38
2023-04-12T05:16:01.782Z,1.50
2023-04-12T05:21:10.155Z,1.42
2023-04-12T05:26:15.881Z,1.40
2023-04-12T05:31:26.109Z,1.30
2023-04-12T05:36:34.823Z,1.42
2023-04-12T05:41:42.106Z,1.50
2023-04-12T05:46:47.838Z,2.10
2023-04-12T05:51:56.985Z,1.58
2023-04-12T05:57:02.443Z,1.53
2023-04-12T06:02:10.327Z,1.40
2023-04-12T06:07:19.736Z,1.73
2023-04-12T06:12:25.302Z,1.60
2023-04-12T06:17:31.314Z,1.50
2023-04-12T06:22:39.574Z,1.47
2023-04-12T06:27:45.999Z,1.65
2023-04-12T06:32:53.650Z,1.57
2023-04-12T06:38:03.216Z,1.70
2023-04-12T06:43:08.647Z,1.23
2023-04-12T06:48:14.021Z,1.67
2023-04-12T06:53:22.058Z,1.45
2023-04-12T06:58:27.592Z,1.47
2023-04-12T07:03:33.482Z,1.67
2023-04-12T07:08:41.728Z,1.80
2023-04-12T07:13:47.408Z,1.50
2023-04-12T07:18:52.710Z,1.90
2023-04-12T07:24:01.911Z,1.47
2023-04-12T07:29:07.764Z,1.65
2023-04-12T07:34:13.362Z,1.80
2023-04-12T07:39:21.390Z,1.60
2023-04-12T07:44:26.818Z,1.48
2023-04-12T07:49:32.195Z,1.50
2023-04-12T07:54:41.018Z,2.05
2023-04-12T07:59:46.446Z,1.58
2023-04-12T08:04:51.753Z,1.60
2023-04-12T08:09:59.691Z,1.65
2023-04-12T08:15:05.261Z,1.67
2023-04-12T08:20:11.564Z,1.83
2023-04-12T08:25:19.634Z,2.45
2023-04-12T08:30:27.156Z,1.43
2023-04-12T08:35:32.902Z,1.60
2023-04-12T08:40:41.654Z,1.73
2023-04-12T08:45:47.499Z,1.48
2023-04-12T08:50:53.804Z,1.90
2023-04-12T08:56:01.831Z,1.70
2023-04-12T09:01:08.372Z,1.95
2023-04-12T09:06:14.145Z,1.63
2023-04-12T09:11:28.290Z,2.10
2023-04-12T09:16:40.754Z,1.77
2023-04-12T09:21:56.022Z,2.23
2023-04-12T09:27:09.343Z,2.25
2023-04-12T09:32:14.692Z,2.53
2023-04-12T09:37:20.372Z,2.53
2023-04-12T09:42:33.978Z,2.47
2023-04-12T09:47:41.662Z,3.20
2023-04-12T09:52:47.299Z,2.40
2023-04-12T09:57:57.233Z,2.23
2023-04-12T10:03:03.625Z,2.00
2023-04-12T10:08:12.203Z,2.30
2023-04-12T10:13:20.909Z,2.53
2023-04-12T10:18:28.129Z,2.58
2023-04-12T10:23:34.685Z,2.60
2023-04-12T10:28:46.621Z,2.13
2023-04-12T10:33:57.740Z,1.15
2023-04-12T10:39:12.474Z,1.20
2023-04-12T10:44:29.652Z,1.23
2023-04-12T10:49:35.569Z,0.80
2023-04-12T10:54:41.299Z,0.70
2023-04-12T10:59:59.641Z,1.23
2023-04-12T11:05:11.570Z,0.80
2023-04-12T11:10:49.264Z,1.20
2023-04-12T11:16:09.994Z,1.13
2023-04-12T11:21:15.727Z,1.17
2023-04-12T11:26:23.067Z,1.02
2023-04-12T11:31:31.156Z,0.90
2023-04-12T11:36:36.946Z,0.90
2023-04-12T11:41:47.177Z,0.98
2023-04-12T11:46:55.388Z,1.10
2023-04-12T11:52:07.935Z,1.00
2023-04-12T11:57:15.814Z,1.02
2023-04-12T12:02:24.842Z,1.23
2023-04-12T12:07:31.775Z,1.57
2023-04-12T12:12:37.791Z,1.50
2023-04-12T12:17:46.079Z,1.30
2023-04-12T12:22:52.344Z,1.40
2023-04-12T12:28:03.758Z,1.48
2023-04-12T12:33:12.070Z,1.27
2023-04-12T12:38:17.486Z,1.40
2023-04-12T12:43:25.904Z,1.20
2023-04-12T12:48:34.184Z,1.37
2023-04-12T12:53:40.251Z,1.60
2023-04-12T12:58:48.686Z,1.50
2023-04-12T13:03:57.018Z,1.20
2023-04-12T13:09:02.806Z,1.88
2023-04-12T13:14:08.426Z,1.60
2023-04-12T13:19:19.095Z,3.20
2023-04-12T13:24:24.828Z,1.85
2023-04-12T13:29:30.323Z,1.60
2023-04-12T13:34:38.765Z,1.60
2023-04-12T13:39:44.937Z,1.90
2023-04-12T13:44:50.649Z,1.60
2023-04-12T13:49:58.887Z,1.60
2023-04-12T13:55:08.559Z,1.80
2023-04-12T14:00:15.748Z,0.77
2023-04-12T14:05:24.239Z,0.60
2023-04-12T14:10:30.486Z,0.80
2023-04-12T14:15:36.236Z,0.87
2023-04-12T14:20:46.754Z,0.47
2023-04-12T14:25:54.639Z,0.52
2023-04-12T14:31:04.159Z,0.57
2023-04-12T14:36:14.081Z,0.53
2023-04-12T14:41:19.904Z,0.60
2023-04-12T14:46:28.636Z,0.63
2023-04-12T14:51:36.962Z,0.53
2023-04-12T14:56:50.173Z,0.93
2023-04-12T15:01:59.676Z,0.60
2023-04-12T15:07:08.014Z,0.83
2023-04-12T15:12:13.823Z,0.90
2023-04-12T15:17:19.229Z,1.43
2023-04-12T15:22:27.358Z,0.40
2023-04-12T15:27:32.997Z,0.60
2023-04-12T15:32:42.666Z,0.60
2023-04-12T15:37:55.346Z,0.60
2023-04-12T15:43:01.163Z,0.52
2023-04-12T15:48:06.985Z,0.30
2023-04-12T15:53:14.961Z,0.30
2023-04-12T15:58:20.384Z,0.30
2023-04-12T16:03:26.820Z,0.30
2023-04-12T16:08:35.061Z,0.28
2023-04-12T16:13:41.979Z,0.50
2023-04-12T16:18:48.460Z,0.50
2023-04-12T16:23:56.462Z,0.60
2023-04-12T16:29:02.203Z,0.40
2023-04-12T16:34:08.542Z,0.30
2023-04-12T16:39:16.735Z,0.40
2023-04-12T16:44:22.292Z,0.50
2023-04-12T16:49:27.709Z,0.80
2023-04-12T16:54:35.754Z,1.07
2023-04-12T16:59:42.701Z,0.50
2023-04-12T17:04:48.570Z,0.60
2023-04-12T17:09:56.545Z,0.60
2023-04-12T17:15:02.130Z,0.43
2023-04-12T17:20:10.733Z,0.50
2023-04-12T17:30:44.242Z,0.43
2023-04-12T17:35:52.445Z,0.63
2023-04-12T17:41:00.427Z,0.70
2023-04-12T17:46:07.404Z,0.68
2023-04-12T17:51:12.861Z,0.57
2023-04-12T17:56:21.079Z,1.30
2023-04-12T18:01:26.448Z,0.80
2023-04-12T18:06:32.602Z,0.87
2023-04-12T18:11:43.607Z,1.05
2023-04-12T18:16:49.573Z,1.42
2023-04-12T18:21:55.770Z,1.27
2023-04-12T18:27:05.113Z,1.23
2023-04-12T18:32:10.628Z,1.00
2023-04-12T18:37:16.155Z,2.00
2023-04-12T18:42:24.131Z,2.30
2023-04-12T18:47:29.655Z,1.63
2023-04-12T18:52:35.412Z,2.30
2023-04-12T18:57:43.386Z,2.07
2023-04-12T19:02:48.874Z,2.40
2023-04-12T19:07:56.081Z,2.45
2023-04-12T19:13:04.117Z,1.07
2023-04-12T19:18:09.559Z,0.80
2023-04-12T19:23:14.986Z,0.73
2023-04-12T19:28:22.989Z,0.50
2023-04-12T19:33:28.955Z,0.60
2023-04-12T19:38:34.317Z,0.30
2023-04-12T19:43:42.225Z,0.30
2023-04-12T19:48:48.921Z,0.37
2023-04-12T19:53:54.918Z,0.60
2023-04-12T19:59:05.745Z,0.82
2023-04-12T20:04:11.176Z,1.00
2023-04-12T20:09:17.441Z,0.73
2023-04-12T20:14:26.956Z,0.60
2023-04-12T20:19:32.636Z,0.60
2023-04-12T20:24:38.109Z,0.77
2023-04-12T20:29:46.823Z,0.60
2023-04-12T20:34:52.203Z,0.50
2023-04-12T20:39:58.421Z,0.60
2023-04-12T20:45:06.768Z,0.70
2023-04-12T20:50:12.761Z,0.77
2023-04-12T20:55:18.216Z,1.00
2023-04-12T21:00:28.272Z,0.60
2023-04-12T21:05:35.895Z,0.70
2023-04-12T21:10:41.363Z,0.65
2023-04-12T21:15:50.462Z,0.50
2023-04-12T21:20:56.907Z,1.10
2023-04-12T21:26:02.637Z,0.90
2023-04-12T21:31:11.383Z,0.93
2023-04-12T21:36:18.066Z,0.90
2023-04-12T21:41:24.582Z,1.30
2023-04-12T21:46:32.592Z,1.20
2023-04-12T21:51:38.106Z,0.77
2023-04-12T21:56:43.588Z,0.60
2023-04-12T22:01:51.803Z,0.80
2023-04-12T22:06:58.330Z,0.40
2023-04-12T22:12:06.745Z,0.50
2023-04-12T22:17:14.786Z,0.52
2023-04-12T22:22:21.047Z,0.50
2023-04-12T22:27:26.849Z,0.35
2023-04-12T22:32:37.120Z,0.47
2023-04-12T22:37:43.455Z,0.37
2023-04-12T22:42:48.940Z,0.52
2023-04-12T22:47:57.105Z,0.53
2023-04-12T22:53:03.448Z,0.70
2023-04-12T22:58:09.337Z,0.38
2023-04-12T23:03:18.006Z,0.30
2023-04-12T23:08:23.449Z,0.52
2023-04-12T23:13:30.511Z,0.40
2023-04-12T23:18:39.016Z,0.63
2023-04-12T23:23:44.469Z,0.70
2023-04-12T23:28:50.660Z,0.30
2023-04-12T23:33:59.167Z,0.30
2023-04-12T23:39:07.210Z,0.30
2023-04-12T23:44:12.643Z,0.40
2023-04-12T23:49:20.964Z,0.40
2023-04-12T23:54:26.386Z,0.50
2023-04-12T23:59:31.811Z,0.40
